sensor_id;sensor_type;location;lat;lon;timestamp;temperature;humidity
31661;DHT22;18267;52.234;7.444;2023-01-16T00:00:52;7.50;99.90
31661;DHT22;18267;52.234;7.444;2023-01-16T00:03:18;7.40;99.90
31661;DHT22;18267;52.234;7.444;2023-01-16T00:05:43;7.30;99.90
31661;DHT22;18267;52.234;7.444;2023-01-16T00:08:09;7.40;99.90
31661;DHT22;18267;52.234;7.444;2023-01-16T00:10:35;7.40;99.90
31661;DHT22;18267;52.234;7.444;2023-01-16T00:13:01;7.50;99.90
31661;DHT22;18267;52.234;7.444;2023-01-16T00:15:27;7.50;99.90
31661;DHT22;18267;52.234;7.444;2023-01-16T00:17:52;7.40;99.90
31661;DHT22;18267;52.234;7.444;2023-01-16T00:20:18;7.40;99.90
31661;DHT22;18267;52.234;7.444;2023-01-16T00:22:44;7.50;99.90
31661;DHT22;18267;52.234;7.444;2023-01-16T00:25:09;7.40;99.90
31661;DHT22;18267;52.234;7.444;2023-01-16T00:27:35;7.40;99.90
31661;DHT22;18267;52.234;7.444;2023-01-16T00:30:01;7.30;99.90
31661;DHT22;18267;52.234;7.444;2023-01-16T00:32:26;7.20;99.90
31661;DHT22;18267;52.234;7.444;2023-01-16T00:34:52;7.30;99.90
31661;DHT22;18267;52.234;7.444;2023-01-16T00:37:17;7.30;99.90
31661;DHT22;18267;52.234;7.444;2023-01-16T00:39:43;7.20;99.90
31661;DHT22;18267;52.234;7.444;2023-01-16T00:42:09;7.10;99.90
31661;DHT22;18267;52.234;7.444;2023-01-16T00:44:34;7.10;99.90
31661;DHT22;18267;52.234;7.444;2023-01-16T00:47:00;7.00;99.90
31661;DHT22;18267;52.234;7.444;2023-01-16T00:49:27;7.10;99.90
31661;DHT22;18267;52.234;7.444;2023-01-16T00:51:53;7.00;99.90
31661;DHT22;18267;52.234;7.444;2023-01-16T00:54:19;7.10;99.90
31661;DHT22;18267;52.234;7.444;2023-01-16T00:56:45;7.00;99.90
31661;DHT22;18267;52.234;7.444;2023-01-16T00:59:11;7.00;99.90
31661;DHT22;18267;52.234;7.444;2023-01-16T01:01:37;7.00;99.90
31661;DHT22;18267;52.234;7.444;2023-01-16T01:04:03;7.00;99.90
31661;DHT22;18267;52.234;7.444;2023-01-16T01:06:29;7.00;99.90
31661;DHT22;18267;52.234;7.444;2023-01-16T01:08:54;7.00;99.90
31661;DHT22;18267;52.234;7.444;2023-01-16T01:11:21;7.00;99.90
31661;DHT22;18267;52.234;7.444;2023-01-16T01:13:47;7.00;99.90
31661;DHT22;18267;52.234;7.444;2023-01-16T01:16:13;7.00;99.90
31661;DHT22;18267;52.234;7.444;2023-01-16T01:18:39;7.00;99.90
31661;DHT22;18267;52.234;7.444;2023-01-16T01:21:05;6.90;99.90
31661;DHT22;18267;52.234;7.444;2023-01-16T01:23:30;7.00;99.90
31661;DHT22;18267;52.234;7.444;2023-01-16T01:25:56;7.10;99.90
31661;DHT22;18267;52.234;7.444;2023-01-16T01:28:22;7.00;99.90
31661;DHT22;18267;52.234;7.444;2023-01-16T01:30:47;7.10;99.90
31661;DHT22;18267;52.234;7.444;2023-01-16T01:33:13;7.10;99.90
31661;DHT22;18267;52.234;7.444;2023-01-16T01:35:38;7.10;99.90
31661;DHT22;18267;52.234;7.444;2023-01-16T01:38:06;7.00;99.90
31661;DHT22;18267;52.234;7.444;2023-01-16T01:40:35;7.10;99.90
31661;DHT22;18267;52.234;7.444;2023-01-16T01:43:08;7.10;99.90
31661;DHT22;18267;52.234;7.444;2023-01-16T01:45:35;7.00;99.90
31661;DHT22;18267;52.234;7.444;2023-01-16T01:48:26;6.90;99.90
31661;DHT22;18267;52.234;7.444;2023-01-16T01:51:10;6.80;99.90
31661;DHT22;18267;52.234;7.444;2023-01-16T01:53:44;6.80;99.90
31661;DHT22;18267;52.234;7.444;2023-01-16T01:58:47;6.80;99.90
31661;DHT22;18267;52.234;7.444;2023-01-16T02:01:16;6.70;99.90
31661;DHT22;18267;52.234;7.444;2023-01-16T02:04:04;6.80;99.90
31661;DHT22;18267;52.234;7.444;2023-01-16T02:06:40;6.70;99.90
31661;DHT22;18267;52.234;7.444;2023-01-16T02:09:14;6.90;99.90
31661;DHT22;18267;52.234;7.444;2023-01-16T02:14:36;6.80;99.90
31661;DHT22;18267;52.234;7.444;2023-01-16T02:17:12;6.80;99.90
31661;DHT22;18267;52.234;7.444;2023-01-16T02:20:14;6.90;99.90
31661;DHT22;18267;52.234;7.444;2023-01-16T02:28:52;6.80;99.90
31661;DHT22;18267;52.234;7.444;2023-01-16T02:37:05;6.70;99.90
31661;DHT22;18267;52.234;7.444;2023-01-16T02:46:58;6.90;99.90
31661;DHT22;18267;52.234;7.444;2023-01-16T02:50:08;6.80;99.90
31661;DHT22;18267;52.234;7.444;2023-01-16T02:53:25;6.80;99.90
31661;DHT22;18267;52.234;7.444;2023-01-16T02:56:09;6.90;99.90
31661;DHT22;18267;52.234;7.444;2023-01-16T02:58:46;6.80;99.90
31661;DHT22;18267;52.234;7.444;2023-01-16T03:06:44;6.70;99.90
31661;DHT22;18267;52.234;7.444;2023-01-16T03:10:00;6.70;99.90
31661;DHT22;18267;52.234;7.444;2023-01-16T03:13:41;6.70;99.90
31661;DHT22;18267;52.234;7.444;2023-01-16T03:16:09;6.70;99.90
31661;DHT22;18267;52.234;7.444;2023-01-16T03:23:54;6.70;99.90
31661;DHT22;18267;52.234;7.444;2023-01-16T03:29:31;6.80;99.90
31661;DHT22;18267;52.234;7.444;2023-01-16T03:32:27;6.80;99.90
31661;DHT22;18267;52.234;7.444;2023-01-16T03:35:06;6.90;99.90
31661;DHT22;18267;52.234;7.444;2023-01-16T03:37:55;7.00;99.90
31661;DHT22;18267;52.234;7.444;2023-01-16T03:40:24;6.90;99.90
31661;DHT22;18267;52.234;7.444;2023-01-16T03:43:18;7.00;99.90
31661;DHT22;18267;52.234;7.444;2023-01-16T03:51:01;7.10;99.90
31661;DHT22;18267;52.234;7.444;2023-01-16T03:53:31;7.00;99.90
31661;DHT22;18267;52.234;7.444;2023-01-16T03:58:35;7.00;99.90
31661;DHT22;18267;52.234;7.444;2023-01-16T04:01:11;7.00;99.90
31661;DHT22;18267;52.234;7.444;2023-01-16T04:03:47;7.00;99.90
31661;DHT22;18267;52.234;7.444;2023-01-16T04:08:57;6.90;99.90
31661;DHT22;18267;52.234;7.444;2023-01-16T04:11:27;7.00;99.90
31661;DHT22;18267;52.234;7.444;2023-01-16T04:13:56;6.80;99.90
31661;DHT22;18267;52.234;7.444;2023-01-16T04:16:23;6.80;99.90
31661;DHT22;18267;52.234;7.444;2023-01-16T04:18:54;6.80;99.90
31661;DHT22;18267;52.234;7.444;2023-01-16T04:21:26;6.80;99.90
31661;DHT22;18267;52.234;7.444;2023-01-16T04:23:58;6.70;99.90
31661;DHT22;18267;52.234;7.444;2023-01-16T04:26:25;6.70;99.90
31661;DHT22;18267;52.234;7.444;2023-01-16T04:28:52;6.60;99.90
31661;DHT22;18267;52.234;7.444;2023-01-16T04:31:27;6.60;99.90
31661;DHT22;18267;52.234;7.444;2023-01-16T04:33:56;6.60;99.90
31661;DHT22;18267;52.234;7.444;2023-01-16T04:36:26;6.60;99.90
31661;DHT22;18267;52.234;7.444;2023-01-16T04:38:57;6.50;99.90
31661;DHT22;18267;52.234;7.444;2023-01-16T04:41:23;6.40;99.90
31661;DHT22;18267;52.234;7.444;2023-01-16T04:44:18;6.30;99.90
31661;DHT22;18267;52.234;7.444;2023-01-16T04:46:51;6.30;99.90
31661;DHT22;18267;52.234;7.444;2023-01-16T04:49:18;6.30;99.90
31661;DHT22;18267;52.234;7.444;2023-01-16T04:51:45;6.20;99.90
31661;DHT22;18267;52.234;7.444;2023-01-16T04:54:15;6.10;99.90
31661;DHT22;18267;52.234;7.444;2023-01-16T04:56:41;6.10;99.90
31661;DHT22;18267;52.234;7.444;2023-01-16T04:59:08;6.10;99.90
31661;DHT22;18267;52.234;7.444;2023-01-16T05:01:34;6.10;99.90
31661;DHT22;18267;52.234;7.444;2023-01-16T05:04:04;6.20;99.90
31661;DHT22;18267;52.234;7.444;2023-01-16T05:06:30;6.10;99.90
31661;DHT22;18267;52.234;7.444;2023-01-16T05:08:56;6.10;99.90
31661;DHT22;18267;52.234;7.444;2023-01-16T05:11:22;6.00;99.90
31661;DHT22;18267;52.234;7.444;2023-01-16T05:13:47;6.10;99.90
31661;DHT22;18267;52.234;7.444;2023-01-16T05:16:12;6.00;99.90
31661;DHT22;18267;52.234;7.444;2023-01-16T05:18:38;6.00;99.90
31661;DHT22;18267;52.234;7.444;2023-01-16T05:21:04;6.00;99.90
31661;DHT22;18267;52.234;7.444;2023-01-16T05:23:30;6.00;99.90
31661;DHT22;18267;52.234;7.444;2023-01-16T05:25:58;6.00;99.90
31661;DHT22;18267;52.234;7.444;2023-01-16T05:28:24;6.00;99.90
31661;DHT22;18267;52.234;7.444;2023-01-16T05:30:50;5.90;99.90
31661;DHT22;18267;52.234;7.444;2023-01-16T05:33:16;5.80;99.90
31661;DHT22;18267;52.234;7.444;2023-01-16T05:35:42;5.80;99.90
31661;DHT22;18267;52.234;7.444;2023-01-16T05:38:07;5.90;99.90
31661;DHT22;18267;52.234;7.444;2023-01-16T05:40:33;5.80;99.90
31661;DHT22;18267;52.234;7.444;2023-01-16T05:42:59;5.90;99.90
31661;DHT22;18267;52.234;7.444;2023-01-16T05:45:24;5.90;99.90
31661;DHT22;18267;52.234;7.444;2023-01-16T05:47:50;5.80;99.90
31661;DHT22;18267;52.234;7.444;2023-01-16T05:50:15;5.80;99.90
31661;DHT22;18267;52.234;7.444;2023-01-16T05:52:41;5.80;99.90
31661;DHT22;18267;52.234;7.444;2023-01-16T05:55:07;5.80;99.90
31661;DHT22;18267;52.234;7.444;2023-01-16T05:57:32;5.70;99.90
31661;DHT22;18267;52.234;7.444;2023-01-16T05:59:58;5.70;99.90
31661;DHT22;18267;52.234;7.444;2023-01-16T06:02:23;5.70;99.90
31661;DHT22;18267;52.234;7.444;2023-01-16T06:04:49;5.70;99.90
31661;DHT22;18267;52.234;7.444;2023-01-16T06:07:15;5.70;99.90
31661;DHT22;18267;52.234;7.444;2023-01-16T06:09:41;5.70;99.90
31661;DHT22;18267;52.234;7.444;2023-01-16T06:12:06;5.50;99.90
31661;DHT22;18267;52.234;7.444;2023-01-16T06:14:35;5.50;99.90
31661;DHT22;18267;52.234;7.444;2023-01-16T06:17:01;5.60;99.90
31661;DHT22;18267;52.234;7.444;2023-01-16T06:19:26;5.50;99.90
31661;DHT22;18267;52.234;7.444;2023-01-16T06:21:52;5.50;99.90
31661;DHT22;18267;52.234;7.444;2023-01-16T06:24:17;5.60;99.90
31661;DHT22;18267;52.234;7.444;2023-01-16T06:26:43;5.60;99.90
31661;DHT22;18267;52.234;7.444;2023-01-16T06:29:09;5.70;99.90
31661;DHT22;18267;52.234;7.444;2023-01-16T06:31:35;5.60;99.90
31661;DHT22;18267;52.234;7.444;2023-01-16T06:34:01;5.70;99.90
31661;DHT22;18267;52.234;7.444;2023-01-16T06:36:27;5.80;99.90
31661;DHT22;18267;52.234;7.444;2023-01-16T06:38:53;5.70;99.90
31661;DHT22;18267;52.234;7.444;2023-01-16T06:41:18;5.70;99.90
31661;DHT22;18267;52.234;7.444;2023-01-16T06:43:44;5.60;99.90
31661;DHT22;18267;52.234;7.444;2023-01-16T06:46:09;5.50;99.90
31661;DHT22;18267;52.234;7.444;2023-01-16T06:48:35;5.40;99.90
31661;DHT22;18267;52.234;7.444;2023-01-16T06:51:00;5.40;99.90
31661;DHT22;18267;52.234;7.444;2023-01-16T06:53:26;5.40;99.90
31661;DHT22;18267;52.234;7.444;2023-01-16T06:55:52;5.40;99.90
31661;DHT22;18267;52.234;7.444;2023-01-16T06:58:17;5.50;99.90
31661;DHT22;18267;52.234;7.444;2023-01-16T07:00:43;5.40;99.90
31661;DHT22;18267;52.234;7.444;2023-01-16T07:03:09;5.40;99.90
31661;DHT22;18267;52.234;7.444;2023-01-16T07:05:35;5.50;99.90
31661;DHT22;18267;52.234;7.444;2023-01-16T07:08:01;5.50;99.90
31661;DHT22;18267;52.234;7.444;2023-01-16T07:10:27;5.50;99.90
31661;DHT22;18267;52.234;7.444;2023-01-16T07:12:52;5.50;99.90
31661;DHT22;18267;52.234;7.444;2023-01-16T07:15:19;5.50;99.90
31661;DHT22;18267;52.234;7.444;2023-01-16T07:18:03;5.40;99.90
31661;DHT22;18267;52.234;7.444;2023-01-16T07:20:59;5.50;99.90
31661;DHT22;18267;52.234;7.444;2023-01-16T07:23:45;5.50;99.90
31661;DHT22;18267;52.234;7.444;2023-01-16T07:26:13;5.60;99.90
31661;DHT22;18267;52.234;7.444;2023-01-16T07:28:39;5.60;99.90
31661;DHT22;18267;52.234;7.444;2023-01-16T07:31:06;5.70;99.90
31661;DHT22;18267;52.234;7.444;2023-01-16T07:33:32;5.80;99.90
31661;DHT22;18267;52.234;7.444;2023-01-16T07:35:58;5.80;99.90
31661;DHT22;18267;52.234;7.444;2023-01-16T07:38:24;5.80;99.90
31661;DHT22;18267;52.234;7.444;2023-01-16T07:40:49;5.80;99.90
31661;DHT22;18267;52.234;7.444;2023-01-16T07:43:15;5.90;99.90
31661;DHT22;18267;52.234;7.444;2023-01-16T07:45:40;5.80;99.90
31661;DHT22;18267;52.234;7.444;2023-01-16T07:48:06;5.90;99.90
31661;DHT22;18267;52.234;7.444;2023-01-16T07:50:32;5.80;99.90
31661;DHT22;18267;52.234;7.444;2023-01-16T07:52:57;5.90;99.90
31661;DHT22;18267;52.234;7.444;2023-01-16T07:55:23;5.80;99.90
31661;DHT22;18267;52.234;7.444;2023-01-16T07:57:49;5.80;99.90
31661;DHT22;18267;52.234;7.444;2023-01-16T08:00:15;5.80;99.90
31661;DHT22;18267;52.234;7.444;2023-01-16T08:02:41;5.90;99.90
31661;DHT22;18267;52.234;7.444;2023-01-16T08:05:07;5.90;99.90
31661;DHT22;18267;52.234;7.444;2023-01-16T08:07:33;5.90;99.90
31661;DHT22;18267;52.234;7.444;2023-01-16T08:09:58;5.90;99.90
31661;DHT22;18267;52.234;7.444;2023-01-16T08:12:24;6.00;99.90
31661;DHT22;18267;52.234;7.444;2023-01-16T08:14:50;6.10;99.90
31661;DHT22;18267;52.234;7.444;2023-01-16T08:17:15;6.20;99.90
31661;DHT22;18267;52.234;7.444;2023-01-16T08:19:41;6.20;99.90
31661;DHT22;18267;52.234;7.444;2023-01-16T08:22:06;6.20;99.90
31661;DHT22;18267;52.234;7.444;2023-01-16T08:24:32;6.20;99.90
31661;DHT22;18267;52.234;7.444;2023-01-16T08:26:57;6.20;99.90
31661;DHT22;18267;52.234;7.444;2023-01-16T08:29:23;6.20;99.90
31661;DHT22;18267;52.234;7.444;2023-01-16T08:31:49;6.20;99.90
31661;DHT22;18267;52.234;7.444;2023-01-16T08:34:15;6.10;99.90
31661;DHT22;18267;52.234;7.444;2023-01-16T08:36:41;6.20;99.90
31661;DHT22;18267;52.234;7.444;2023-01-16T08:39:08;6.10;99.90
31661;DHT22;18267;52.234;7.444;2023-01-16T08:41:34;6.20;99.90
31661;DHT22;18267;52.234;7.444;2023-01-16T08:44:18;6.30;99.90
31661;DHT22;18267;52.234;7.444;2023-01-16T08:47:13;6.30;99.90
31661;DHT22;18267;52.234;7.444;2023-01-16T08:49:58;6.20;99.90
31661;DHT22;18267;52.234;7.444;2023-01-16T08:52:43;6.20;99.90
31661;DHT22;18267;52.234;7.444;2023-01-16T08:55:09;6.20;99.90
31661;DHT22;18267;52.234;7.444;2023-01-16T08:57:35;6.30;99.90
31661;DHT22;18267;52.234;7.444;2023-01-16T09:00:01;6.30;99.90
31661;DHT22;18267;52.234;7.444;2023-01-16T09:02:27;6.40;99.90
31661;DHT22;18267;52.234;7.444;2023-01-16T09:04:53;6.40;99.90
31661;DHT22;18267;52.234;7.444;2023-01-16T09:07:20;6.50;99.90
31661;DHT22;18267;52.234;7.444;2023-01-16T09:09:46;6.50;99.90
31661;DHT22;18267;52.234;7.444;2023-01-16T09:12:13;6.60;99.90
31661;DHT22;18267;52.234;7.444;2023-01-16T09:14:58;6.70;99.90
31661;DHT22;18267;52.234;7.444;2023-01-16T09:17:25;6.70;99.90
31661;DHT22;18267;52.234;7.444;2023-01-16T09:19:52;6.80;99.90
31661;DHT22;18267;52.234;7.444;2023-01-16T09:22:18;6.90;99.90
31661;DHT22;18267;52.234;7.444;2023-01-16T09:24:46;6.90;99.90
31661;DHT22;18267;52.234;7.444;2023-01-16T09:27:40;6.80;99.90
31661;DHT22;18267;52.234;7.444;2023-01-16T09:33:16;6.80;99.90
31661;DHT22;18267;52.234;7.444;2023-01-16T09:35:43;6.70;99.90
31661;DHT22;18267;52.234;7.444;2023-01-16T09:38:09;6.50;99.90
31661;DHT22;18267;52.234;7.444;2023-01-16T09:40:35;6.50;99.90
31661;DHT22;18267;52.234;7.444;2023-01-16T09:48:50;6.40;99.90
31661;DHT22;18267;52.234;7.444;2023-01-16T09:51:21;6.30;99.90
31661;DHT22;18267;52.234;7.444;2023-01-16T09:53:51;6.30;99.90
31661;DHT22;18267;52.234;7.444;2023-01-16T09:56:41;6.40;99.90
31661;DHT22;18267;52.234;7.444;2023-01-16T10:01:55;6.20;99.90
31661;DHT22;18267;52.234;7.444;2023-01-16T10:04:24;6.20;99.90
31661;DHT22;18267;52.234;7.444;2023-01-16T10:12:13;6.10;99.90
31661;DHT22;18267;52.234;7.444;2023-01-16T10:17:27;6.10;99.90
31661;DHT22;18267;52.234;7.444;2023-01-16T10:23:16;6.10;99.90
31661;DHT22;18267;52.234;7.444;2023-01-16T10:25:52;6.20;99.90
31661;DHT22;18267;52.234;7.444;2023-01-16T10:31:12;6.30;99.90
31661;DHT22;18267;52.234;7.444;2023-01-16T10:36:37;6.30;99.90
31661;DHT22;18267;52.234;7.444;2023-01-16T10:39:04;6.40;99.90
31661;DHT22;18267;52.234;7.444;2023-01-16T10:41:35;6.50;99.90
31661;DHT22;18267;52.234;7.444;2023-01-16T10:44:42;6.60;99.90
31661;DHT22;18267;52.234;7.444;2023-01-16T10:47:34;6.60;99.90
31661;DHT22;18267;52.234;7.444;2023-01-16T10:50:21;6.50;99.90
31661;DHT22;18267;52.234;7.444;2023-01-16T10:52:48;6.50;99.90
31661;DHT22;18267;52.234;7.444;2023-01-16T10:55:14;6.50;99.90
31661;DHT22;18267;52.234;7.444;2023-01-16T10:57:49;6.50;99.90
31661;DHT22;18267;52.234;7.444;2023-01-16T11:00:21;6.50;99.90
31661;DHT22;18267;52.234;7.444;2023-01-16T11:02:54;6.40;99.90
31661;DHT22;18267;52.234;7.444;2023-01-16T11:07:48;6.60;99.90
31661;DHT22;18267;52.234;7.444;2023-01-16T11:10:16;6.50;99.90
31661;DHT22;18267;52.234;7.444;2023-01-16T11:12:42;6.50;99.90
31661;DHT22;18267;52.234;7.444;2023-01-16T11:15:26;6.50;99.90
31661;DHT22;18267;52.234;7.444;2023-01-16T11:18:29;6.60;99.90
31661;DHT22;18267;52.234;7.444;2023-01-16T11:21:01;6.60;99.90
31661;DHT22;18267;52.234;7.444;2023-01-16T11:23:36;6.70;99.90
31661;DHT22;18267;52.234;7.444;2023-01-16T11:26:04;6.70;99.90
31661;DHT22;18267;52.234;7.444;2023-01-16T11:28:31;6.70;99.90
31661;DHT22;18267;52.234;7.444;2023-01-16T11:31:02;6.60;99.90
31661;DHT22;18267;52.234;7.444;2023-01-16T11:33:44;6.70;99.90
31661;DHT22;18267;52.234;7.444;2023-01-16T11:36:11;6.60;99.90
31661;DHT22;18267;52.234;7.444;2023-01-16T11:38:44;6.60;99.90
31661;DHT22;18267;52.234;7.444;2023-01-16T11:41:11;6.60;99.90
31661;DHT22;18267;52.234;7.444;2023-01-16T11:43:38;6.60;99.90
31661;DHT22;18267;52.234;7.444;2023-01-16T11:46:37;6.50;99.90
31661;DHT22;18267;52.234;7.444;2023-01-16T11:49:23;6.40;99.90
31661;DHT22;18267;52.234;7.444;2023-01-16T11:51:53;6.40;99.90
31661;DHT22;18267;52.234;7.444;2023-01-16T11:54:43;6.40;99.90
31661;DHT22;18267;52.234;7.444;2023-01-16T11:59:58;6.50;99.90
31661;DHT22;18267;52.234;7.444;2023-01-16T12:13:46;6.50;99.90
31661;DHT22;18267;52.234;7.444;2023-01-16T12:16:50;6.50;99.90
31661;DHT22;18267;52.234;7.444;2023-01-16T12:19:28;6.40;99.90
31661;DHT22;18267;52.234;7.444;2023-01-16T12:22:08;6.30;99.90
31661;DHT22;18267;52.234;7.444;2023-01-16T12:24:58;6.30;99.90
31661;DHT22;18267;52.234;7.444;2023-01-16T12:27:43;6.30;99.90
31661;DHT22;18267;52.234;7.444;2023-01-16T12:30:29;6.30;99.90
31661;DHT22;18267;52.234;7.444;2023-01-16T12:33:13;6.40;99.90
31661;DHT22;18267;52.234;7.444;2023-01-16T12:41:50;6.30;99.90
31661;DHT22;18267;52.234;7.444;2023-01-16T12:44:48;6.40;99.90
31661;DHT22;18267;52.234;7.444;2023-01-16T12:47:38;6.50;99.90
31661;DHT22;18267;52.234;7.444;2023-01-16T12:53:39;6.80;99.90
31661;DHT22;18267;52.234;7.444;2023-01-16T12:59:01;6.90;99.90
31661;DHT22;18267;52.234;7.444;2023-01-16T13:01:47;7.00;99.90
31661;DHT22;18267;52.234;7.444;2023-01-16T13:06:52;6.80;99.90
31661;DHT22;18267;52.234;7.444;2023-01-16T13:09:26;6.90;99.90
31661;DHT22;18267;52.234;7.444;2023-01-16T13:12:05;6.90;99.90
31661;DHT22;18267;52.234;7.444;2023-01-16T13:14:56;7.00;99.90
31661;DHT22;18267;52.234;7.444;2023-01-16T13:17:26;7.00;99.90
31661;DHT22;18267;52.234;7.444;2023-01-16T13:19:53;7.00;99.90
31661;DHT22;18267;52.234;7.444;2023-01-16T13:22:29;7.00;99.90
31661;DHT22;18267;52.234;7.444;2023-01-16T13:27:41;6.90;99.90
31661;DHT22;18267;52.234;7.444;2023-01-16T13:30:12;6.90;99.90
31661;DHT22;18267;52.234;7.444;2023-01-16T13:33:02;6.90;99.90
31661;DHT22;18267;52.234;7.444;2023-01-16T13:35:32;6.90;99.90
31661;DHT22;18267;52.234;7.444;2023-01-16T13:41:14;6.90;99.90
31661;DHT22;18267;52.234;7.444;2023-01-16T13:43:52;6.80;99.90
31661;DHT22;18267;52.234;7.444;2023-01-16T13:46:38;6.60;99.90
31661;DHT22;18267;52.234;7.444;2023-01-16T13:49:05;6.60;99.90
31661;DHT22;18267;52.234;7.444;2023-01-16T13:51:40;6.60;99.90
31661;DHT22;18267;52.234;7.444;2023-01-16T13:54:14;6.70;99.90
31661;DHT22;18267;52.234;7.444;2023-01-16T13:56:41;6.70;99.90
31661;DHT22;18267;52.234;7.444;2023-01-16T13:59:08;6.70;99.90
31661;DHT22;18267;52.234;7.444;2023-01-16T14:06:57;6.50;99.90
31661;DHT22;18267;52.234;7.444;2023-01-16T14:12:43;6.50;99.90
31661;DHT22;18267;52.234;7.444;2023-01-16T14:15:25;6.60;99.90
31661;DHT22;18267;52.234;7.444;2023-01-16T14:18:16;6.70;99.90
31661;DHT22;18267;52.234;7.444;2023-01-16T14:23:29;6.80;99.90
31661;DHT22;18267;52.234;7.444;2023-01-16T14:29:13;6.70;99.90
31661;DHT22;18267;52.234;7.444;2023-01-16T14:31:42;6.60;99.90
31661;DHT22;18267;52.234;7.444;2023-01-16T14:34:40;6.70;99.90
31661;DHT22;18267;52.234;7.444;2023-01-16T14:37:25;6.60;99.90
31661;DHT22;18267;52.234;7.444;2023-01-16T14:42:48;6.70;99.90
31661;DHT22;18267;52.234;7.444;2023-01-16T14:45:35;6.70;99.90
31661;DHT22;18267;52.234;7.444;2023-01-16T14:53:59;6.70;99.90
31661;DHT22;18267;52.234;7.444;2023-01-16T14:56:47;6.60;99.90
31661;DHT22;18267;52.234;7.444;2023-01-16T14:59:18;6.70;99.90
31661;DHT22;18267;52.234;7.444;2023-01-16T15:02:15;6.70;99.90
31661;DHT22;18267;52.234;7.444;2023-01-16T15:07:31;6.60;99.90
31661;DHT22;18267;52.234;7.444;2023-01-16T15:10:02;6.70;99.90
31661;DHT22;18267;52.234;7.444;2023-01-16T15:12:40;6.60;99.90
31661;DHT22;18267;52.234;7.444;2023-01-16T15:15:19;6.50;99.90
31661;DHT22;18267;52.234;7.444;2023-01-16T15:17:50;6.60;99.90
31661;DHT22;18267;52.234;7.444;2023-01-16T15:20:36;6.70;99.90
31661;DHT22;18267;52.234;7.444;2023-01-16T15:23:36;6.70;99.90
31661;DHT22;18267;52.234;7.444;2023-01-16T15:29:02;6.60;99.90
31661;DHT22;18267;52.234;7.444;2023-01-16T15:31:37;6.60;99.90
31661;DHT22;18267;52.234;7.444;2023-01-16T15:36:49;6.40;99.90
31661;DHT22;18267;52.234;7.444;2023-01-16T15:39:41;6.40;99.90
31661;DHT22;18267;52.234;7.444;2023-01-16T15:45:08;6.40;99.90
31661;DHT22;18267;52.234;7.444;2023-01-16T15:48:05;6.30;99.90
31661;DHT22;18267;52.234;7.444;2023-01-16T15:50:58;6.40;99.90
31661;DHT22;18267;52.234;7.444;2023-01-16T15:53:30;6.40;99.90
31661;DHT22;18267;52.234;7.444;2023-01-16T15:56:06;6.40;99.90
31661;DHT22;18267;52.234;7.444;2023-01-16T15:58:32;6.40;99.90
31661;DHT22;18267;52.234;7.444;2023-01-16T16:01:03;6.30;99.90
31661;DHT22;18267;52.234;7.444;2023-01-16T16:03:36;6.40;99.90
31661;DHT22;18267;52.234;7.444;2023-01-16T16:06:04;6.30;99.90
31661;DHT22;18267;52.234;7.444;2023-01-16T16:08:52;6.40;99.90
31661;DHT22;18267;52.234;7.444;2023-01-16T16:11:20;6.30;99.90
31661;DHT22;18267;52.234;7.444;2023-01-16T16:14:05;6.40;99.90
31661;DHT22;18267;52.234;7.444;2023-01-16T16:17:16;6.40;99.90
31661;DHT22;18267;52.234;7.444;2023-01-16T16:20:23;6.40;99.90
31661;DHT22;18267;52.234;7.444;2023-01-16T16:22:49;6.40;99.90
31661;DHT22;18267;52.234;7.444;2023-01-16T16:25:26;6.40;99.90
31661;DHT22;18267;52.234;7.444;2023-01-16T16:27:54;6.40;99.90
31661;DHT22;18267;52.234;7.444;2023-01-16T16:30:24;6.30;99.90
31661;DHT22;18267;52.234;7.444;2023-01-16T16:32:51;6.30;99.90
31661;DHT22;18267;52.234;7.444;2023-01-16T16:35:22;6.20;99.90
31661;DHT22;18267;52.234;7.444;2023-01-16T16:37:49;6.10;99.90
31661;DHT22;18267;52.234;7.444;2023-01-16T16:40:15;6.20;99.90
31661;DHT22;18267;52.234;7.444;2023-01-16T16:47:45;6.10;99.90
31661;DHT22;18267;52.234;7.444;2023-01-16T16:50:30;6.20;99.90
31661;DHT22;18267;52.234;7.444;2023-01-16T16:55:46;6.20;99.90
31661;DHT22;18267;52.234;7.444;2023-01-16T16:58:23;6.20;99.90
31661;DHT22;18267;52.234;7.444;2023-01-16T17:00:49;6.10;99.90
31661;DHT22;18267;52.234;7.444;2023-01-16T17:03:19;6.10;99.90
31661;DHT22;18267;52.234;7.444;2023-01-16T17:05:47;6.20;99.90
31661;DHT22;18267;52.234;7.444;2023-01-16T17:08:25;6.10;99.90
31661;DHT22;18267;52.234;7.444;2023-01-16T17:10:54;6.10;99.90
31661;DHT22;18267;52.234;7.444;2023-01-16T17:13:22;6.10;99.90
31661;DHT22;18267;52.234;7.444;2023-01-16T17:15:50;6.10;99.90
31661;DHT22;18267;52.234;7.444;2023-01-16T17:18:18;6.10;99.90
31661;DHT22;18267;52.234;7.444;2023-01-16T17:20:44;6.10;99.90
31661;DHT22;18267;52.234;7.444;2023-01-16T17:23:16;6.10;99.90
31661;DHT22;18267;52.234;7.444;2023-01-16T17:25:43;6.10;99.90
31661;DHT22;18267;52.234;7.444;2023-01-16T17:28:12;6.10;99.90
31661;DHT22;18267;52.234;7.444;2023-01-16T17:30:39;6.10;99.90
31661;DHT22;18267;52.234;7.444;2023-01-16T17:33:13;6.20;99.90
31661;DHT22;18267;52.234;7.444;2023-01-16T17:35:43;6.20;99.90
31661;DHT22;18267;52.234;7.444;2023-01-16T17:38:11;6.20;99.90
31661;DHT22;18267;52.234;7.444;2023-01-16T17:40:37;6.20;99.90
31661;DHT22;18267;52.234;7.444;2023-01-16T17:43:04;6.20;99.90
31661;DHT22;18267;52.234;7.444;2023-01-16T17:45:50;6.20;99.90
31661;DHT22;18267;52.234;7.444;2023-01-16T17:48:20;6.20;99.90
31661;DHT22;18267;52.234;7.444;2023-01-16T17:50:46;6.20;99.90
31661;DHT22;18267;52.234;7.444;2023-01-16T17:53:14;6.20;99.90
31661;DHT22;18267;52.234;7.444;2023-01-16T17:55:42;6.30;99.90
31661;DHT22;18267;52.234;7.444;2023-01-16T17:58:32;6.40;99.90
31661;DHT22;18267;52.234;7.444;2023-01-16T18:01:10;6.50;99.90
31661;DHT22;18267;52.234;7.444;2023-01-16T18:03:36;6.40;99.90
31661;DHT22;18267;52.234;7.444;2023-01-16T18:06:03;6.40;99.90
31661;DHT22;18267;52.234;7.444;2023-01-16T18:08:30;6.40;99.90
31661;DHT22;18267;52.234;7.444;2023-01-16T18:10:58;6.40;99.90
31661;DHT22;18267;52.234;7.444;2023-01-16T18:13:25;6.40;99.90
31661;DHT22;18267;52.234;7.444;2023-01-16T18:16:13;6.30;99.90
31661;DHT22;18267;52.234;7.444;2023-01-16T18:18:58;6.30;99.90
31661;DHT22;18267;52.234;7.444;2023-01-16T18:21:23;6.30;99.90
31661;DHT22;18267;52.234;7.444;2023-01-16T18:24:08;6.30;99.90
31661;DHT22;18267;52.234;7.444;2023-01-16T18:26:33;6.40;99.90
31661;DHT22;18267;52.234;7.444;2023-01-16T18:28:59;6.40;99.90
31661;DHT22;18267;52.234;7.444;2023-01-16T18:31:24;6.40;99.90
31661;DHT22;18267;52.234;7.444;2023-01-16T18:33:50;6.40;99.90
31661;DHT22;18267;52.234;7.444;2023-01-16T18:36:20;6.30;99.90
31661;DHT22;18267;52.234;7.444;2023-01-16T18:38:49;6.30;99.90
31661;DHT22;18267;52.234;7.444;2023-01-16T18:41:34;6.30;99.90
31661;DHT22;18267;52.234;7.444;2023-01-16T18:44:18;6.30;99.90
31661;DHT22;18267;52.234;7.444;2023-01-16T18:47:02;6.30;99.90
31661;DHT22;18267;52.234;7.444;2023-01-16T18:49:50;6.30;99.90
31661;DHT22;18267;52.234;7.444;2023-01-16T18:52:35;6.20;99.90
31661;DHT22;18267;52.234;7.444;2023-01-16T18:55:20;6.30;99.90